createdAt,value
2018-01-18T00:00:20.124Z,999.69
2018-01-18T00:01:00.837Z,999.69
2018-01-18T00:01:41.304Z,999.7
2018-01-18T00:02:21.820Z,999.7
2018-01-18T00:03:02.383Z,999.66
2018-01-18T00:03:42.933Z,999.62
2018-01-18T00:05:42.189Z,999.66
2018-01-18T00:06:22.704Z,999.66
2018-01-18T00:07:05.897Z,999.61
2018-01-18T00:07:46.496Z,999.59
2018-01-18T00:08:27.045Z,999.56
2018-01-18T00:09:07.603Z,999.55
2018-01-18T00:09:50.869Z,999.52
2018-01-18T00:10:31.695Z,999.55
2018-01-18T00:11:12.067Z,999.58
2018-01-18T00:11:52.564Z,999.61
2018-01-18T00:12:33.641Z,999.52
2018-01-18T00:13:15.339Z,999.59
2018-01-18T00:13:55.902Z,999.58
2018-01-18T00:14:36.457Z,999.61
2018-01-18T00:15:17.012Z,999.62
2018-01-18T00:15:57.562Z,999.61
2018-01-18T00:18:14.350Z,999.56
2018-01-18T00:18:56.996Z,999.56
2018-01-18T00:19:37.479Z,999.58
2018-01-18T00:20:22.827Z,999.62
2018-01-18T00:22:50.194Z,999.56
2018-01-18T00:23:32.186Z,999.56
2018-01-18T00:24:12.708Z,999.61
2018-01-18T00:24:55.864Z,999.61
2018-01-18T00:25:36.995Z,999.61
2018-01-18T00:26:17.702Z,999.64
2018-01-18T00:26:59.803Z,999.57
2018-01-18T00:27:40.381Z,999.59
2018-01-18T00:28:21.321Z,999.51
2018-01-18T00:29:01.639Z,999.56
2018-01-18T00:29:42.308Z,999.55
2018-01-18T00:30:22.735Z,999.52
2018-01-18T00:31:03.678Z,999.5
2018-01-18T00:31:44.269Z,999.59
2018-01-18T00:32:25.069Z,999.53
2018-01-18T00:33:05.655Z,999.56
2018-01-18T00:33:46.764Z,999.55
2018-01-18T00:34:27.405Z,999.38
2018-01-18T00:35:08.235Z,999.49
2018-01-18T00:35:48.800Z,999.49
2018-01-18T00:36:29.857Z,999.46
2018-01-18T00:37:10.610Z,999.46
2018-01-18T00:37:51.102Z,999.46
2018-01-18T00:38:31.781Z,999.39
2018-01-18T00:39:12.327Z,999.45
2018-01-18T00:39:52.886Z,999.4
2018-01-18T00:40:33.489Z,999.41
2018-01-18T00:41:14.172Z,999.46
2018-01-18T00:41:54.763Z,999.45
2018-01-18T00:42:35.518Z,999.46
2018-01-18T00:43:16.186Z,999.47
2018-01-18T00:43:56.929Z,999.43
2018-01-18T00:44:37.422Z,999.39
2018-01-18T00:45:17.935Z,999.38
2018-01-18T00:45:58.506Z,999.39
2018-01-18T00:46:39.168Z,999.41
2018-01-18T00:47:19.678Z,999.34
2018-01-18T00:48:00.282Z,999.3
2018-01-18T00:48:40.914Z,999.27
2018-01-18T00:49:21.417Z,999.33
2018-01-18T00:50:01.980Z,999.22
2018-01-18T00:50:42.501Z,999.25
2018-01-18T00:51:23.022Z,999.25
2018-01-18T00:52:03.822Z,999.28
2018-01-18T00:52:44.544Z,999.32
2018-01-18T00:53:25.275Z,999.27
2018-01-18T00:54:05.786Z,999.18
2018-01-18T00:54:46.351Z,999.24
2018-01-18T00:55:27.030Z,999.28
2018-01-18T00:56:07.501Z,999.17
2018-01-18T00:56:48.227Z,999.29
2018-01-18T00:57:28.844Z,999.19
2018-01-18T00:58:09.962Z,999.23
2018-01-18T00:58:50.682Z,999.21
2018-01-18T00:59:31.608Z,999.31
2018-01-18T01:00:12.314Z,999.32
2018-01-18T01:00:53.830Z,999.27
2018-01-18T01:01:35.378Z,999.28
2018-01-18T01:02:16.212Z,999.34
2018-01-18T01:02:56.883Z,999.24
2018-01-18T01:03:37.713Z,999.3
2018-01-18T01:04:19.113Z,999.24
2018-01-18T01:05:03.961Z,999.27
2018-01-18T01:05:45.068Z,999.28
2018-01-18T01:06:25.638Z,999.18
2018-01-18T01:07:06.350Z,999.27
2018-01-18T01:07:47.985Z,999.32
2018-01-18T01:08:29.570Z,999.29
2018-01-18T01:09:11.507Z,999.31
2018-01-18T01:09:53.215Z,999.24
2018-01-18T01:10:34.983Z,999.22
2018-01-18T01:11:15.981Z,999.21
2018-01-18T01:11:57.446Z,999.16
2018-01-18T01:12:39.600Z,999.14
2018-01-18T01:13:21.705Z,999.11
2018-01-18T01:14:03.308Z,999.19
2018-01-18T01:14:45.284Z,999.11
2018-01-18T01:15:26.051Z,999.18
2018-01-18T01:16:06.583Z,999.16
2018-01-18T01:16:49.140Z,999.05
2018-01-18T01:17:30.013Z,999.1
2018-01-18T01:18:10.997Z,999.04
2018-01-18T01:18:51.505Z,999.13
2018-01-18T01:19:33.324Z,999.05
2018-01-18T01:20:15.108Z,999.11
2018-01-18T01:20:55.779Z,999.06
2018-01-18T01:21:37.316Z,999.13
2018-01-18T01:22:18.322Z,999.02
2018-01-18T01:23:00.119Z,998.97
2018-01-18T01:23:42.276Z,998.97
2018-01-18T01:24:23.898Z,998.96
2018-01-18T01:25:06.087Z,998.9
2018-01-18T01:25:46.875Z,998.88
2018-01-18T01:26:28.169Z,998.92
2018-01-18T01:27:09.298Z,998.86
2018-01-18T01:27:50.543Z,998.92
2018-01-18T01:28:31.043Z,998.97
2018-01-18T01:29:11.629Z,998.96
2018-01-18T01:29:53.044Z,998.92
2018-01-18T01:30:33.759Z,998.94
2018-01-18T01:31:14.707Z,998.94
2018-01-18T01:31:55.108Z,998.92
2018-01-18T01:32:35.743Z,998.93
2018-01-18T01:33:16.558Z,998.82
2018-01-18T01:33:57.367Z,998.71
2018-01-18T01:34:38.357Z,998.84
2018-01-18T01:35:19.201Z,998.7
2018-01-18T01:35:59.881Z,998.7
2018-01-18T01:36:41.404Z,998.61
2018-01-18T01:37:22.098Z,998.57
2018-01-18T01:38:05.607Z,998.6
2018-01-18T01:38:48.946Z,998.56
2018-01-18T01:39:48.567Z,998.55
2018-01-18T01:40:29.052Z,998.54
2018-01-18T01:41:09.566Z,998.67
2018-01-18T01:41:52.467Z,998.63
2018-01-18T01:42:33.005Z,998.58
2018-01-18T01:43:13.565Z,998.64
2018-01-18T01:43:54.087Z,998.56
2018-01-18T01:44:34.654Z,998.45
2018-01-18T01:45:15.877Z,998.47
2018-01-18T01:45:57.558Z,998.45
2018-01-18T01:46:38.108Z,998.44
2018-01-18T01:47:18.668Z,998.4
2018-01-18T01:47:59.166Z,998.39
2018-01-18T01:48:42.094Z,998.34
2018-01-18T01:49:22.979Z,998.31
2018-01-18T01:50:03.555Z,998.25
2018-01-18T01:50:44.077Z,998.33
2018-01-18T01:51:24.580Z,998.34
2018-01-18T01:52:07.021Z,998.34
2018-01-18T01:52:48.320Z,998.36
2018-01-18T01:53:28.829Z,998.43
2018-01-18T01:54:09.341Z,998.34
2018-01-18T01:54:53.437Z,998.39
2018-01-18T01:56:47.854Z,998.41
2018-01-18T01:57:28.341Z,998.34
2018-01-18T01:58:09.065Z,998.34
2018-01-18T01:58:49.595Z,998.32
2018-01-18T02:01:09.747Z,998.29
2018-01-18T02:01:52.942Z,998.33
2018-01-18T02:02:33.452Z,998.29
2018-01-18T02:03:14.001Z,998.29
2018-01-18T02:03:54.534Z,998.34
2018-01-18T02:06:27.335Z,998.19
2018-01-18T02:07:09.896Z,998.11
2018-01-18T02:07:48.591Z,998.2
2018-01-18T02:08:29.161Z,998.16
2018-01-18T02:09:09.694Z,998.15
2018-01-18T02:09:50.236Z,998.15
2018-01-18T02:10:30.717Z,998.16
2018-01-18T02:11:11.332Z,998.08
2018-01-18T02:11:51.849Z,998.1
2018-01-18T02:12:32.388Z,998.03
2018-01-18T02:13:12.978Z,998.09
2018-01-18T02:13:53.439Z,998.05
2018-01-18T02:14:33.991Z,998.02
2018-01-18T02:15:14.508Z,998.02
2018-01-18T02:15:55.007Z,997.99
2018-01-18T02:16:35.614Z,997.94
2018-01-18T02:17:16.093Z,998
2018-01-18T02:17:56.612Z,997.92
2018-01-18T02:18:37.115Z,997.96
2018-01-18T02:19:17.640Z,998.03
2018-01-18T02:19:58.210Z,997.96
2018-01-18T02:20:38.747Z,997.96
2018-01-18T02:21:19.268Z,997.86
2018-01-18T02:21:59.815Z,997.78
2018-01-18T02:22:40.344Z,997.73
2018-01-18T02:23:20.993Z,997.53
2018-01-18T02:24:01.503Z,997.74
2018-01-18T02:24:42.094Z,997.71
2018-01-18T02:25:22.584Z,997.71
2018-01-18T02:26:03.130Z,997.6
2018-01-18T02:26:43.672Z,997.67
2018-01-18T02:27:24.364Z,997.63
2018-01-18T02:28:05.058Z,997.59
2018-01-18T02:28:45.447Z,997.68
2018-01-18T02:29:26.045Z,997.58
2018-01-18T02:30:06.597Z,997.46
2018-01-18T02:30:47.089Z,997.5
2018-01-18T02:31:27.651Z,997.54
2018-01-18T02:32:08.141Z,997.49
2018-01-18T02:32:48.707Z,997.47
2018-01-18T02:33:29.259Z,997.46
2018-01-18T02:34:09.779Z,997.44
2018-01-18T02:34:50.340Z,997.44
2018-01-18T02:35:30.830Z,997.43
2018-01-18T02:36:11.357Z,997.38
2018-01-18T02:36:51.943Z,997.42
2018-01-18T02:37:32.431Z,997.39
2018-01-18T02:38:12.950Z,997.34
2018-01-18T02:38:53.455Z,997.33
2018-01-18T02:39:33.985Z,997.23
2018-01-18T02:40:14.561Z,997.34
2018-01-18T02:40:55.151Z,997.32
2018-01-18T02:41:35.606Z,997.35
2018-01-18T02:42:16.167Z,997.29
2018-01-18T02:42:56.721Z,997.29
2018-01-18T02:43:37.245Z,997.32
2018-01-18T02:44:17.730Z,997.29
2018-01-18T02:44:58.280Z,997.23
2018-01-18T02:45:38.797Z,997.2
2018-01-18T02:46:19.309Z,997.21
2018-01-18T02:46:59.893Z,997.21
2018-01-18T02:47:40.404Z,997.2
2018-01-18T02:48:20.972Z,997.02
2018-01-18T02:49:01.497Z,997.05
2018-01-18T02:49:42.059Z,997.03
2018-01-18T02:50:22.585Z,997.1
2018-01-18T02:51:03.126Z,996.97
2018-01-18T02:51:43.630Z,996.99
2018-01-18T02:52:24.190Z,997.07
2018-01-18T02:53:04.672Z,997.07
2018-01-18T02:53:45.194Z,997.05
2018-01-18T02:54:25.750Z,997.07
2018-01-18T02:55:06.279Z,997.12
2018-01-18T02:55:46.773Z,997.03
2018-01-18T02:56:27.331Z,997.05
2018-01-18T02:57:07.855Z,997.18
2018-01-18T02:57:48.369Z,997.09
2018-01-18T02:58:28.925Z,997.05
2018-01-18T02:59:09.493Z,997.06
2018-01-18T02:59:50.050Z,997.11
2018-01-18T03:00:30.560Z,997.03
2018-01-18T03:01:11.106Z,997.07
2018-01-18T03:01:51.630Z,997.12
2018-01-18T03:02:32.184Z,997.1
2018-01-18T03:03:12.701Z,997.14
2018-01-18T03:03:53.185Z,997.11
2018-01-18T03:04:33.725Z,997.13
2018-01-18T03:05:14.276Z,997.12
2018-01-18T03:05:54.784Z,997.12
2018-01-18T03:06:35.298Z,997.2
2018-01-18T03:07:15.800Z,997.16
2018-01-18T03:07:56.344Z,997.13
2018-01-18T03:08:36.885Z,997.06
2018-01-18T03:09:17.367Z,997.09
2018-01-18T03:09:57.880Z,997.11
2018-01-18T03:10:38.389Z,996.99
2018-01-18T03:11:18.929Z,996.96
2018-01-18T03:11:59.489Z,996.94
2018-01-18T03:12:40.026Z,996.85
2018-01-18T03:13:20.575Z,996.78
2018-01-18T03:14:01.111Z,996.78
2018-01-18T03:14:41.687Z,996.77
2018-01-18T03:15:22.184Z,996.73
2018-01-18T03:16:02.701Z,996.74
2018-01-18T03:16:43.242Z,996.76
2018-01-18T03:17:23.765Z,996.65
2018-01-18T03:18:04.337Z,996.7
2018-01-18T03:18:44.832Z,996.66
2018-01-18T03:19:25.411Z,996.63
2018-01-18T03:20:05.868Z,996.62
2018-01-18T03:20:46.425Z,996.59
2018-01-18T03:21:26.997Z,996.63
2018-01-18T03:22:07.537Z,996.57
2018-01-18T03:22:48.127Z,996.54
2018-01-18T03:23:28.613Z,996.58
2018-01-18T03:24:09.202Z,996.51
2018-01-18T03:24:49.714Z,996.42
2018-01-18T03:25:30.232Z,996.51
2018-01-18T03:26:10.780Z,996.5
2018-01-18T03:26:51.292Z,996.5
2018-01-18T03:27:31.844Z,996.39
2018-01-18T03:28:12.393Z,996.38
2018-01-18T03:28:52.898Z,996.37
2018-01-18T03:29:33.474Z,996.35
2018-01-18T03:30:14.020Z,996.32
2018-01-18T03:30:54.551Z,996.23
2018-01-18T03:31:35.108Z,996.18
2018-01-18T03:32:15.636Z,996.25
2018-01-18T03:32:56.140Z,996.2
2018-01-18T03:33:36.665Z,996.21
2018-01-18T03:34:17.235Z,996.36
2018-01-18T03:34:57.999Z,996.26
2018-01-18T03:35:38.532Z,996.17
2018-01-18T03:36:19.016Z,996.27
2018-01-18T03:36:59.567Z,996.26
2018-01-18T03:37:40.128Z,996.16
2018-01-18T03:38:20.650Z,996.18
2018-01-18T03:39:01.201Z,996.18
2018-01-18T03:39:41.714Z,996.12
2018-01-18T03:40:22.218Z,996.09
2018-01-18T03:41:02.753Z,996.01
2018-01-18T03:41:43.284Z,996.11
2018-01-18T03:42:23.804Z,996.05
2018-01-18T03:43:04.307Z,995.87
2018-01-18T03:43:44.816Z,996.06
2018-01-18T03:44:25.367Z,996
2018-01-18T03:45:05.913Z,995.94
2018-01-18T03:45:46.424Z,995.95
2018-01-18T03:46:26.947Z,995.94
2018-01-18T03:47:07.508Z,995.92
2018-01-18T03:47:48.209Z,995.89
2018-01-18T03:48:28.803Z,995.84
2018-01-18T03:49:09.341Z,995.91
2018-01-18T03:49:49.834Z,995.83
2018-01-18T03:50:30.374Z,995.93
2018-01-18T03:51:10.899Z,995.8
2018-01-18T03:51:51.403Z,995.88
2018-01-18T03:52:31.968Z,995.81
2018-01-18T03:53:12.476Z,995.86
2018-01-18T03:53:52.984Z,995.83
2018-01-18T03:54:33.569Z,995.74
2018-01-18T03:55:14.098Z,995.75
2018-01-18T03:55:55.733Z,995.75
2018-01-18T03:56:35.435Z,995.65
2018-01-18T03:57:16.003Z,995.66
2018-01-18T03:57:56.584Z,995.63
2018-01-18T03:58:37.062Z,995.61
2018-01-18T03:59:17.603Z,995.57
2018-01-18T03:59:58.107Z,995.6
2018-01-18T04:00:38.611Z,995.59
2018-01-18T04:01:19.128Z,995.51
2018-01-18T04:01:59.653Z,995.53
2018-01-18T04:02:40.170Z,995.39
2018-01-18T04:03:20.717Z,995.46
2018-01-18T04:04:01.256Z,995.37
2018-01-18T04:04:41.795Z,995.4
2018-01-18T04:05:22.395Z,995.46
2018-01-18T04:06:04.077Z,995.37
2018-01-18T04:06:44.333Z,995.37
2018-01-18T04:07:24.876Z,995.37
2018-01-18T04:08:05.408Z,995.33
2018-01-18T04:08:45.930Z,995.25
2018-01-18T04:09:26.491Z,995.34
2018-01-18T04:10:06.993Z,995.2
2018-01-18T04:10:47.542Z,995.29
2018-01-18T04:11:28.040Z,995.25
2018-01-18T04:12:08.557Z,995.25
2018-01-18T04:12:49.153Z,995.23
2018-01-18T04:13:30.181Z,995.14
2018-01-18T04:14:10.824Z,995.1
2018-01-18T04:14:51.417Z,995.16
2018-01-18T04:15:32.043Z,995.23
2018-01-18T04:16:12.580Z,995.03
2018-01-18T04:16:53.086Z,995.13
2018-01-18T04:17:33.643Z,995.23
2018-01-18T04:18:14.166Z,995.09
2018-01-18T04:18:54.698Z,994.99
2018-01-18T04:19:35.233Z,995.09
2018-01-18T04:20:15.744Z,995.01
2018-01-18T04:20:56.371Z,995.02
2018-01-18T04:21:37.460Z,995.02
2018-01-18T04:22:17.957Z,995
2018-01-18T04:22:58.476Z,994.91
2018-01-18T04:23:39.047Z,994.83
2018-01-18T04:24:19.570Z,994.8
2018-01-18T04:25:00.108Z,994.83
2018-01-18T04:25:40.660Z,994.83
2018-01-18T04:26:21.205Z,994.74
2018-01-18T04:27:01.762Z,994.83
2018-01-18T04:27:42.334Z,994.76
2018-01-18T04:28:22.997Z,994.82
2018-01-18T04:29:03.687Z,994.64
2018-01-18T04:29:44.259Z,994.68
2018-01-18T04:32:13.216Z,994.59
2018-01-18T04:32:53.735Z,994.53
2018-01-18T04:33:34.285Z,994.43
2018-01-18T04:34:14.785Z,994.46
2018-01-18T04:34:55.356Z,994.46
2018-01-18T04:35:38.093Z,994.45
2018-01-18T04:36:18.702Z,994.47
2018-01-18T04:36:59.294Z,994.46
2018-01-18T04:37:39.835Z,994.42
2018-01-18T04:38:20.368Z,994.36
2018-01-18T04:39:03.165Z,994.36
2018-01-18T04:39:43.782Z,994.24
2018-01-18T04:40:24.273Z,994.26
2018-01-18T04:41:04.830Z,994.24
2018-01-18T04:41:45.297Z,994.28
2018-01-18T04:42:27.984Z,994.11
2018-01-18T04:43:08.502Z,994.13
2018-01-18T04:43:49.039Z,994.12
2018-01-18T04:44:29.585Z,994.15
2018-01-18T04:45:10.123Z,994.12
2018-01-18T04:45:50.680Z,994.1
2018-01-18T04:46:33.962Z,994.1
2018-01-18T04:47:14.487Z,993.95
2018-01-18T04:47:55.058Z,993.97
2018-01-18T04:48:38.507Z,994
2018-01-18T04:49:19.032Z,993.93
2018-01-18T04:49:59.571Z,993.99
2018-01-18T04:50:40.100Z,993.9
2018-01-18T04:51:20.684Z,993.89
2018-01-18T04:52:03.954Z,993.86
2018-01-18T04:52:44.457Z,993.92
2018-01-18T04:53:25.004Z,993.92
2018-01-18T04:54:07.144Z,993.85
2018-01-18T04:54:46.768Z,993.84
2018-01-18T04:55:27.278Z,993.91
2018-01-18T04:56:07.813Z,993.82
2018-01-18T04:56:48.367Z,993.91
2018-01-18T04:57:28.834Z,993.78
2018-01-18T04:58:09.362Z,993.8
2018-01-18T04:58:49.905Z,993.79
2018-01-18T04:59:30.430Z,993.57
2018-01-18T05:00:10.986Z,993.65
2018-01-18T05:00:51.520Z,993.7
2018-01-18T05:01:32.087Z,993.71
2018-01-18T05:02:12.606Z,993.58
2018-01-18T05:02:53.116Z,993.57
2018-01-18T05:03:33.661Z,993.54
2018-01-18T05:04:14.209Z,993.52
2018-01-18T05:04:54.782Z,993.43
2018-01-18T05:05:35.213Z,993.44
2018-01-18T05:06:15.712Z,993.45
2018-01-18T05:06:56.236Z,993.46
2018-01-18T05:07:36.762Z,993.39
2018-01-18T05:08:17.275Z,993.41
2018-01-18T05:08:57.826Z,993.34
2018-01-18T05:09:38.328Z,993.32
2018-01-18T05:10:18.877Z,993.33
2018-01-18T05:10:59.370Z,993.29
2018-01-18T05:11:39.884Z,993.21
2018-01-18T05:12:20.410Z,993.27
2018-01-18T05:13:00.922Z,993.2
2018-01-18T05:13:41.450Z,993.11
2018-01-18T05:14:22.014Z,992.97
2018-01-18T05:15:02.530Z,993.17
2018-01-18T05:15:43.068Z,993.14
2018-01-18T05:16:23.613Z,993.08
2018-01-18T05:17:04.125Z,993.12
2018-01-18T05:17:44.681Z,993.16
2018-01-18T05:18:25.250Z,992.96
2018-01-18T05:19:05.736Z,993.02
2018-01-18T05:19:46.283Z,992.98
2018-01-18T05:20:26.772Z,993.03
2018-01-18T05:21:07.302Z,992.91
2018-01-18T05:21:47.862Z,992.82
2018-01-18T05:22:28.383Z,992.75
2018-01-18T05:23:08.924Z,992.88
2018-01-18T05:23:49.425Z,992.88
2018-01-18T05:24:30.014Z,992.85
2018-01-18T05:25:10.556Z,992.77
2018-01-18T05:25:51.074Z,992.84
2018-01-18T05:26:31.593Z,992.78
2018-01-18T05:27:12.126Z,992.73
2018-01-18T05:27:52.675Z,992.82
2018-01-18T05:28:33.216Z,992.62
2018-01-18T05:29:13.731Z,992.69
2018-01-18T05:29:54.268Z,992.64
2018-01-18T05:30:34.800Z,992.57
2018-01-18T05:31:15.347Z,992.58
2018-01-18T05:31:55.907Z,992.61
2018-01-18T05:32:36.390Z,992.7
2018-01-18T05:33:16.868Z,992.52
2018-01-18T05:33:57.433Z,992.64
2018-01-18T05:34:38.024Z,992.62
2018-01-18T05:35:18.522Z,992.6
2018-01-18T05:35:59.056Z,992.54
2018-01-18T05:36:39.613Z,992.7
2018-01-18T05:37:20.118Z,992.54
2018-01-18T05:38:00.664Z,992.6
2018-01-18T05:38:41.196Z,992.52
2018-01-18T05:39:21.713Z,992.37
2018-01-18T05:40:02.212Z,992.49
2018-01-18T05:40:42.799Z,992.46
2018-01-18T05:41:23.322Z,992.48
2018-01-18T05:42:03.821Z,992.46
2018-01-18T05:42:44.327Z,992.32
2018-01-18T05:43:24.889Z,992.36
2018-01-18T05:44:05.381Z,992.29
2018-01-18T05:44:45.957Z,992.35
2018-01-18T05:45:26.500Z,992.34
2018-01-18T05:46:07.052Z,992.24
2018-01-18T05:46:48.025Z,992.31
2018-01-18T05:47:37.156Z,992.15
2018-01-18T05:48:16.860Z,992.11
2018-01-18T05:48:57.914Z,991.94
2018-01-18T05:49:38.089Z,992.05
2018-01-18T05:50:18.633Z,992.07
2018-01-18T05:50:59.174Z,992.02
2018-01-18T05:51:40.411Z,992.04
2018-01-18T05:52:20.902Z,991.94
2018-01-18T05:53:01.440Z,992.1
2018-01-18T05:53:41.974Z,991.92
2018-01-18T05:54:23.024Z,991.9
2018-01-18T05:55:03.414Z,991.87
2018-01-18T05:55:44.155Z,991.97
2018-01-18T05:56:24.487Z,991.86
2018-01-18T05:57:05.008Z,991.79
2018-01-18T05:57:45.515Z,991.86
2018-01-18T05:58:26.486Z,991.82
2018-01-18T05:59:06.842Z,991.66
2018-01-18T05:59:47.306Z,991.76
2018-01-18T06:00:28.233Z,991.73
2018-01-18T06:01:09.305Z,991.65
2018-01-18T06:01:49.618Z,991.78
2018-01-18T06:02:30.127Z,991.52
2018-01-18T06:03:10.632Z,991.57
2018-01-18T06:03:51.221Z,991.7
2018-01-18T06:04:31.749Z,991.67
2018-01-18T06:05:12.295Z,991.47
2018-01-18T06:05:52.810Z,991.52
2018-01-18T06:06:33.362Z,991.52
2018-01-18T06:07:13.893Z,991.57
2018-01-18T06:07:54.366Z,991.41
2018-01-18T06:08:34.931Z,991.41
2018-01-18T06:09:15.501Z,991.35
2018-01-18T06:09:56.023Z,991.43
2018-01-18T06:10:36.519Z,991.35
2018-01-18T06:11:17.933Z,991.34
2018-01-18T06:11:58.575Z,991.3
2018-01-18T06:12:39.096Z,991.31
2018-01-18T06:13:19.674Z,991.27
2018-01-18T06:14:00.180Z,991.27
2018-01-18T06:14:40.899Z,991.2
2018-01-18T06:15:21.399Z,991.27
2018-01-18T06:16:01.992Z,991.3
2018-01-18T06:16:42.489Z,991.08
2018-01-18T06:17:23.034Z,991.06
2018-01-18T06:18:03.521Z,991.05
2018-01-18T06:18:44.058Z,991.11
2018-01-18T06:19:24.683Z,991.05
2018-01-18T06:20:05.303Z,991.02
2018-01-18T06:20:45.787Z,991.02
2018-01-18T06:21:26.331Z,990.95
2018-01-18T06:22:06.856Z,990.9
2018-01-18T06:22:47.398Z,990.86
2018-01-18T06:23:27.932Z,990.82
2018-01-18T06:24:08.466Z,990.85
2018-01-18T06:24:49.040Z,990.88
2018-01-18T06:25:29.907Z,990.92
2018-01-18T06:26:10.190Z,990.78
2018-01-18T06:26:50.716Z,990.84
2018-01-18T06:27:31.286Z,990.82
2018-01-18T06:28:11.790Z,990.9
2018-01-18T06:28:52.291Z,990.82
2018-01-18T06:29:32.801Z,990.73
2018-01-18T06:30:13.300Z,990.83
2018-01-18T06:30:53.829Z,990.93
2018-01-18T06:31:34.366Z,990.84
2018-01-18T06:32:14.952Z,990.94
2018-01-18T06:32:55.514Z,990.9
2018-01-18T06:33:36.058Z,990.71
2018-01-18T06:34:16.585Z,990.81
2018-01-18T06:34:57.107Z,990.8
2018-01-18T06:35:37.611Z,990.87
2018-01-18T06:36:18.245Z,990.84
2018-01-18T06:36:58.768Z,990.86
2018-01-18T06:37:39.408Z,990.82
2018-01-18T06:38:20.330Z,990.75
2018-01-18T06:39:00.871Z,990.75
2018-01-18T06:39:41.407Z,990.78
2018-01-18T06:40:21.917Z,990.73
2018-01-18T06:41:02.466Z,990.75
2018-01-18T06:41:43.027Z,990.85
2018-01-18T06:42:23.521Z,990.79
2018-01-18T06:43:04.030Z,990.68
2018-01-18T06:43:44.622Z,990.9
2018-01-18T06:44:25.178Z,990.73
2018-01-18T06:45:05.729Z,990.62
2018-01-18T06:45:46.278Z,990.65
2018-01-18T06:46:26.809Z,990.65
2018-01-18T06:47:07.303Z,990.58
2018-01-18T06:47:47.945Z,990.62
2018-01-18T06:48:28.625Z,990.66
2018-01-18T06:49:09.160Z,990.78
2018-01-18T06:49:49.683Z,990.72
2018-01-18T06:50:30.230Z,990.73
2018-01-18T06:51:10.777Z,990.67
2018-01-18T06:51:51.293Z,990.45
2018-01-18T06:52:31.884Z,990.69
2018-01-18T06:53:12.420Z,990.73
2018-01-18T06:53:52.894Z,990.61
2018-01-18T06:54:33.417Z,990.69
2018-01-18T06:55:13.988Z,990.69
2018-01-18T06:55:54.527Z,990.65
2018-01-18T06:56:35.816Z,990.76
2018-01-18T06:57:15.869Z,990.73
2018-01-18T06:57:56.475Z,990.4
2018-01-18T06:58:36.942Z,990.71
2018-01-18T06:59:17.572Z,990.8
2018-01-18T06:59:58.098Z,990.82
2018-01-18T07:00:38.619Z,990.81
2018-01-18T07:01:19.173Z,990.75
2018-01-18T07:01:59.678Z,990.83
2018-01-18T07:02:40.228Z,990.65
2018-01-18T07:03:20.840Z,990.56
2018-01-18T07:04:01.426Z,990.66
2018-01-18T07:04:41.963Z,990.6
2018-01-18T07:05:22.510Z,990.61
2018-01-18T07:06:03.131Z,990.63
2018-01-18T07:06:43.635Z,990.53
2018-01-18T07:07:24.217Z,990.61
2018-01-18T07:08:04.741Z,990.47
2018-01-18T07:08:45.286Z,990.44
2018-01-18T07:09:25.875Z,990.61
2018-01-18T07:10:06.427Z,990.63
2018-01-18T07:10:47.020Z,990.6
2018-01-18T07:11:27.696Z,990.59
2018-01-18T07:12:08.245Z,990.56
2018-01-18T07:12:48.823Z,990.53
2018-01-18T07:13:29.363Z,990.52
2018-01-18T07:14:09.911Z,990.67
2018-01-18T07:14:50.487Z,990.51
2018-01-18T07:15:31.006Z,990.56
2018-01-18T07:16:11.488Z,990.53
2018-01-18T07:16:52.108Z,990.53
2018-01-18T07:17:32.670Z,990.49
2018-01-18T07:18:13.236Z,990.5
2018-01-18T07:18:53.822Z,990.49
2018-01-18T07:19:34.313Z,990.37
2018-01-18T07:20:14.838Z,990.2
2018-01-18T07:20:55.948Z,990.34
2018-01-18T07:21:35.932Z,990.3
2018-01-18T07:22:16.420Z,990.24
2018-01-18T07:22:57.034Z,990.21
2018-01-18T07:23:37.539Z,990.3
2018-01-18T07:24:18.060Z,990.21
2018-01-18T07:24:58.563Z,990.26
2018-01-18T07:25:39.139Z,990.35
2018-01-18T07:26:19.618Z,990.23
2018-01-18T07:27:00.237Z,990.25
2018-01-18T07:27:40.776Z,990.48
2018-01-18T07:28:21.307Z,990.39
2018-01-18T07:29:01.816Z,990.36
2018-01-18T07:29:42.529Z,990.26
2018-01-18T07:30:23.037Z,990.09
2018-01-18T07:31:03.548Z,990.25
2018-01-18T07:31:44.062Z,990.04
2018-01-18T07:32:24.586Z,990.23
2018-01-18T07:33:05.126Z,990.26
2018-01-18T07:33:45.655Z,990.16
2018-01-18T07:34:26.231Z,990.17
2018-01-18T07:35:06.829Z,990.24
2018-01-18T07:35:47.399Z,990.09
2018-01-18T07:36:27.906Z,990.2
2018-01-18T07:37:08.441Z,990.28
2018-01-18T07:37:48.975Z,990.19
2018-01-18T07:38:30.882Z,990.27
2018-01-18T07:39:11.178Z,990.27
2018-01-18T07:39:51.870Z,990.37
2018-01-18T07:40:32.456Z,990.21
2018-01-18T07:41:13.042Z,990.33
2018-01-18T07:41:53.577Z,990.37
2018-01-18T07:42:34.060Z,990.14
2018-01-18T07:43:14.534Z,990.28
2018-01-18T07:43:55.088Z,990.23
2018-01-18T07:44:35.606Z,990.25
2018-01-18T07:45:16.255Z,990.19
2018-01-18T07:45:56.782Z,990.28
2018-01-18T07:46:37.332Z,990.3
2018-01-18T07:47:18.096Z,990.29
2018-01-18T07:47:58.633Z,990.2
2018-01-18T07:48:39.128Z,990.19
2018-01-18T07:49:19.661Z,990.23
2018-01-18T07:50:00.274Z,990.16
2018-01-18T07:50:40.789Z,990.18
2018-01-18T07:51:21.320Z,990.22
2018-01-18T07:52:01.857Z,990.16
2018-01-18T07:52:42.437Z,990.22
2018-01-18T07:53:22.976Z,990.08
2018-01-18T07:54:03.579Z,990.26
2018-01-18T07:54:44.058Z,990.11
2018-01-18T07:55:24.637Z,990.24
2018-01-18T07:56:05.144Z,990.21
2018-01-18T07:56:45.684Z,990.1
2018-01-18T07:57:26.389Z,990.05
2018-01-18T07:58:06.922Z,990.02
2018-01-18T07:58:47.488Z,989.98
2018-01-18T07:59:28.009Z,990.02
2018-01-18T08:00:08.594Z,990.21
2018-01-18T08:00:49.292Z,990.09
2018-01-18T08:01:29.855Z,990.12
2018-01-18T08:02:10.458Z,990.05
2018-01-18T08:02:50.970Z,990.02
2018-01-18T08:03:31.505Z,990.01
2018-01-18T08:04:12.140Z,989.67
2018-01-18T08:04:52.622Z,990.02
2018-01-18T08:05:33.139Z,989.84
2018-01-18T08:06:13.654Z,990
2018-01-18T08:06:54.173Z,990.06
2018-01-18T08:07:34.847Z,990.05
2018-01-18T08:08:15.350Z,990.1
2018-01-18T08:08:55.859Z,990.04
2018-01-18T08:09:36.380Z,990.09
2018-01-18T08:10:16.900Z,989.97
2018-01-18T08:10:57.590Z,989.92
2018-01-18T08:11:38.104Z,989.96
2018-01-18T08:12:18.641Z,990.04
2018-01-18T08:12:59.203Z,990.11
2018-01-18T08:13:39.801Z,990.1
2018-01-18T08:14:20.357Z,990.12
2018-01-18T08:15:00.883Z,990.16
2018-01-18T08:15:41.451Z,990.15
2018-01-18T08:16:21.963Z,990.12
2018-01-18T08:17:02.483Z,990.2
2018-01-18T08:17:43.056Z,990.04
2018-01-18T08:18:23.527Z,990.22
2018-01-18T08:19:04.144Z,990.2
2018-01-18T08:19:44.683Z,990.09
2018-01-18T08:20:25.189Z,990.11
2018-01-18T08:21:05.781Z,990.17
2018-01-18T08:21:46.532Z,989.96
2018-01-18T08:22:27.028Z,990.02
2018-01-18T08:23:07.620Z,989.86
2018-01-18T08:23:48.181Z,989.77
2018-01-18T08:24:28.729Z,989.69
2018-01-18T08:25:09.217Z,989.86
2018-01-18T08:25:49.754Z,989.71
2018-01-18T08:26:30.289Z,989.69
2018-01-18T08:27:10.812Z,989.72
2018-01-18T08:27:51.324Z,989.65
2018-01-18T08:28:31.950Z,989.68
2018-01-18T08:29:12.487Z,989.74
2018-01-18T08:29:53.037Z,989.45
2018-01-18T08:30:33.657Z,989.64
2018-01-18T08:31:14.136Z,989.66
2018-01-18T08:33:34.154Z,989.6
2018-01-18T08:34:22.940Z,989.53
2018-01-18T08:35:13.805Z,989.49
2018-01-18T08:36:00.962Z,989.54
2018-01-18T08:36:50.832Z,989.53
2018-01-18T08:37:43.129Z,989.54
2018-01-18T08:38:35.606Z,989.63
2018-01-18T08:40:19.129Z,989.61
2018-01-18T08:45:55.222Z,989.19
2018-01-18T08:46:42.961Z,989.47
2018-01-18T08:47:35.302Z,989.39
2018-01-18T08:48:23.139Z,989.41
2018-01-18T08:49:11.245Z,989.39
2018-01-18T08:50:01.905Z,989.47
2018-01-18T08:50:50.350Z,989.44